createdAt,value
2023-08-02T00:02:04.499Z,18.55
2023-08-02T00:04:34.060Z,18.39
2023-08-02T00:07:04.933Z,18.49
2023-08-02T00:09:35.731Z,18.56
2023-08-02T00:12:05.937Z,18.63
2023-08-02T00:14:35.677Z,18.49
2023-08-02T00:17:07.742Z,18.50
2023-08-02T00:19:37.454Z,18.51
2023-08-02T00:22:07.454Z,18.26
2023-08-02T00:24:37.421Z,18.44
2023-08-02T00:27:07.378Z,18.42
2023-08-02T00:29:36.806Z,18.40
2023-08-02T00:32:09.483Z,18.43
2023-08-02T00:34:38.924Z,18.36
2023-08-02T00:37:08.410Z,18.39
2023-08-02T00:39:37.847Z,18.38
2023-08-02T00:42:07.623Z,18.34
2023-08-02T00:44:38.440Z,18.51
2023-08-02T00:47:10.840Z,18.40
2023-08-02T00:49:40.308Z,18.14
2023-08-02T00:52:10.109Z,18.23
2023-08-02T00:54:39.722Z,18.28
2023-08-02T00:57:09.512Z,18.42
2023-08-02T00:59:40.439Z,18.47
2023-08-02T01:02:12.943Z,18.48
2023-08-02T01:04:42.887Z,18.29
2023-08-02T01:07:21.738Z,18.27
2023-08-02T01:09:57.073Z,18.17
2023-08-02T01:12:28.087Z,18.41
2023-08-02T01:15:00.163Z,18.28
2023-08-02T01:17:32.879Z,18.44
2023-08-02T01:20:07.783Z,18.45
2023-08-02T01:22:40.193Z,18.43
2023-08-02T01:25:10.614Z,18.27
2023-08-02T01:27:44.694Z,18.39
2023-08-02T01:30:17.504Z,18.19
2023-08-02T01:32:47.179Z,18.25
2023-08-02T01:35:19.957Z,18.48
2023-08-02T01:37:49.994Z,18.52
2023-08-02T01:40:19.547Z,18.39
2023-08-02T01:42:49.051Z,18.39
2023-08-02T01:45:18.582Z,18.34
2023-08-02T01:47:49.246Z,18.42
2023-08-02T01:50:21.722Z,18.40
2023-08-02T01:52:51.262Z,18.46
2023-08-02T01:55:21.938Z,18.36
2023-08-02T01:57:51.571Z,18.25
2023-08-02T02:00:21.441Z,18.43
2023-08-02T02:02:51.055Z,18.41
2023-08-02T02:05:24.667Z,18.40
2023-08-02T02:07:54.095Z,18.46
2023-08-02T02:10:23.517Z,18.27
2023-08-02T02:12:52.980Z,18.53
2023-08-02T02:15:22.653Z,18.39
2023-08-02T02:17:52.219Z,18.44
2023-08-02T02:20:24.415Z,18.28
2023-08-02T02:22:54.008Z,18.26
2023-08-02T02:25:23.384Z,18.32
2023-08-02T02:27:52.750Z,18.49
2023-08-02T02:30:22.253Z,18.44
2023-08-02T02:32:51.821Z,18.36
2023-08-02T02:35:23.826Z,18.52
2023-08-02T02:37:53.608Z,18.24
2023-08-02T02:40:23.068Z,18.40
2023-08-02T02:42:52.450Z,18.32
2023-08-02T02:45:21.819Z,18.41
2023-08-02T02:47:51.240Z,18.42
2023-08-02T02:50:21.283Z,18.38
2023-08-02T02:52:53.232Z,18.44
2023-08-02T02:55:22.670Z,18.48
2023-08-02T02:57:52.179Z,18.33
2023-08-02T03:00:21.601Z,18.45
2023-08-02T03:02:51.064Z,18.38
2023-08-02T03:05:20.614Z,18.27
2023-08-02T03:07:50.203Z,18.30
2023-08-02T03:10:22.270Z,18.30
2023-08-02T03:12:51.721Z,18.35
2023-08-02T03:15:21.165Z,18.31
2023-08-02T03:17:50.640Z,18.41
2023-08-02T03:20:20.146Z,18.27
2023-08-02T03:22:49.558Z,18.11
2023-08-02T03:25:19.276Z,18.11
2023-08-02T03:27:51.365Z,18.03
2023-08-02T03:30:20.947Z,18.08
2023-08-02T03:32:50.480Z,18.14
2023-08-02T03:35:20.203Z,18.31
2023-08-02T03:37:49.675Z,18.15
2023-08-02T03:40:20.627Z,18.15
2023-08-02T03:42:52.819Z,18.30
2023-08-02T03:45:22.585Z,18.11
2023-08-02T03:47:54.764Z,18.10
2023-08-02T03:50:24.265Z,18.06
2023-08-02T03:52:53.854Z,18.03
2023-08-02T03:55:23.351Z,18.07
2023-08-02T03:57:55.694Z,18.17
2023-08-02T04:00:25.154Z,18.13
2023-08-02T04:02:54.630Z,18.05
2023-08-02T04:05:24.031Z,18.18
2023-08-02T04:07:53.742Z,18.09
2023-08-02T04:10:23.133Z,18.23
2023-08-02T04:12:56.611Z,18.22
2023-08-02T04:15:26.017Z,18.13
2023-08-02T04:17:55.437Z,18.35
2023-08-02T04:20:24.851Z,18.26
2023-08-02T04:22:54.254Z,18.26
2023-08-02T04:25:24.167Z,18.07
2023-08-02T04:27:56.273Z,18.15
2023-08-02T04:30:25.647Z,18.17
2023-08-02T04:32:55.195Z,18.33
2023-08-02T04:35:24.700Z,18.24
2023-08-02T04:37:54.189Z,18.33
2023-08-02T04:40:23.565Z,18.39
2023-08-02T04:42:56.843Z,18.29
2023-08-02T04:45:26.265Z,18.31
2023-08-02T04:47:55.906Z,18.38
2023-08-02T04:50:25.360Z,18.44
2023-08-02T04:52:54.697Z,18.52
2023-08-02T04:55:24.109Z,18.31
2023-08-02T04:57:53.750Z,18.46
2023-08-02T05:00:25.930Z,18.39
2023-08-02T05:02:55.677Z,18.41
2023-08-02T05:05:27.678Z,18.35
2023-08-02T05:07:58.010Z,18.51
2023-08-02T05:10:27.579Z,18.57
2023-08-02T05:12:57.657Z,18.40
2023-08-02T05:15:29.811Z,18.56
2023-08-02T05:17:59.206Z,18.59
2023-08-02T05:20:28.561Z,18.61
2023-08-02T05:22:57.984Z,18.59
2023-08-02T05:25:30.534Z,18.69
2023-08-02T05:27:59.943Z,18.57
2023-08-02T05:30:35.023Z,18.43
2023-08-02T05:33:04.802Z,18.38
2023-08-02T05:35:34.549Z,18.35
2023-08-02T05:38:05.527Z,18.58
2023-08-02T05:40:36.122Z,18.46
2023-08-02T05:43:05.727Z,18.48
2023-08-02T05:45:38.076Z,18.56
2023-08-02T05:48:08.518Z,18.62
2023-08-02T05:50:38.006Z,18.56
2023-08-02T05:53:07.377Z,18.68
2023-08-02T05:55:36.798Z,18.62
2023-08-02T05:58:06.303Z,18.47
2023-08-02T06:00:39.198Z,18.60
2023-08-02T06:03:08.712Z,18.45
2023-08-02T06:05:51.886Z,18.48
2023-08-02T06:08:21.535Z,18.57
2023-08-02T06:10:51.014Z,18.52
2023-08-02T06:13:20.579Z,18.54
2023-08-02T06:15:53.359Z,18.59
2023-08-02T06:18:22.932Z,18.56
2023-08-02T06:20:52.441Z,18.48
2023-08-02T06:23:22.194Z,18.52
2023-08-02T06:25:51.629Z,18.45
2023-08-02T06:28:21.080Z,18.52
2023-08-02T06:30:53.313Z,18.55
2023-08-02T06:33:22.715Z,18.63
2023-08-02T06:35:52.121Z,18.64
2023-08-02T06:38:21.548Z,18.79
2023-08-02T06:40:50.914Z,18.77
2023-08-02T06:43:20.291Z,18.79
2023-08-02T06:45:50.360Z,18.75
2023-08-02T06:48:23.750Z,18.68
2023-08-02T06:50:53.308Z,18.64
2023-08-02T06:53:22.807Z,18.73
2023-08-02T06:55:52.324Z,18.71
2023-08-02T06:58:21.831Z,18.66
2023-08-02T07:00:51.212Z,18.78
2023-08-02T07:03:23.439Z,18.74
2023-08-02T07:05:52.813Z,18.72
2023-08-02T07:08:22.210Z,18.72
2023-08-02T07:10:51.731Z,18.89
2023-08-02T07:13:21.084Z,18.75
2023-08-02T07:15:50.432Z,18.65
2023-08-02T07:18:19.821Z,18.87
2023-08-02T07:20:51.791Z,18.89
2023-08-02T07:23:21.508Z,18.89
2023-08-02T07:25:51.424Z,18.94
2023-08-02T07:28:21.862Z,18.98
2023-08-02T07:30:51.226Z,18.94
2023-08-02T07:33:20.600Z,18.95
2023-08-02T07:35:52.670Z,19.08
2023-08-02T07:38:22.035Z,19.01
2023-08-02T07:40:51.602Z,19.00
2023-08-02T07:43:20.992Z,19.14
2023-08-02T07:45:50.421Z,19.16
2023-08-02T07:48:19.808Z,19.21
2023-08-02T07:50:54.602Z,19.10
2023-08-02T07:53:24.019Z,19.24
2023-08-02T07:56:03.327Z,19.19
2023-08-02T07:58:32.801Z,19.39
2023-08-02T08:01:08.361Z,19.45
2023-08-02T08:03:38.000Z,19.51
2023-08-02T08:06:18.014Z,19.62
2023-08-02T08:08:47.491Z,19.67
2023-08-02T08:11:17.020Z,19.56
2023-08-02T08:13:46.436Z,19.67
2023-08-02T08:16:15.820Z,19.81
2023-08-02T08:18:45.206Z,19.74
2023-08-02T08:21:17.542Z,19.89
2023-08-02T08:23:46.919Z,20.04
2023-08-02T08:26:16.475Z,19.94
2023-08-02T08:28:45.839Z,19.80
2023-08-02T08:31:15.175Z,19.84
2023-08-02T08:33:44.537Z,19.83
2023-08-02T08:36:18.972Z,19.91
2023-08-02T08:38:49.560Z,19.94
2023-08-02T08:41:20.529Z,20.00
2023-08-02T08:43:50.177Z,20.05
2023-08-02T08:46:21.722Z,20.03
2023-08-02T08:48:51.802Z,20.13
2023-08-02T08:51:25.060Z,20.06
2023-08-02T08:53:55.006Z,20.04
2023-08-02T08:56:26.852Z,20.16
2023-08-02T08:58:57.197Z,20.18
2023-08-02T09:01:27.200Z,20.24
2023-08-02T09:03:56.857Z,20.13
2023-08-02T09:06:30.863Z,20.23
2023-08-02T09:09:00.260Z,20.33
2023-08-02T09:11:29.639Z,20.15
2023-08-02T09:14:12.792Z,20.27
2023-08-02T09:16:59.955Z,20.03
2023-08-02T09:19:31.166Z,20.08
2023-08-02T09:22:17.751Z,20.17
2023-08-02T09:24:48.629Z,20.19
2023-08-02T09:27:21.341Z,20.06
2023-08-02T09:29:52.202Z,20.20
2023-08-02T09:32:23.541Z,20.26
2023-08-02T09:34:54.831Z,20.28
2023-08-02T09:37:34.977Z,20.24
2023-08-02T09:40:06.022Z,20.16
2023-08-02T09:42:35.562Z,20.42
2023-08-02T09:45:07.480Z,20.28
2023-08-02T09:47:36.941Z,20.43
2023-08-02T09:50:08.811Z,20.20
2023-08-02T09:52:41.946Z,20.16
2023-08-02T09:55:13.779Z,20.30
2023-08-02T09:57:47.065Z,20.38
2023-08-02T10:00:18.622Z,20.45
2023-08-02T10:02:50.068Z,20.41
2023-08-02T10:05:20.404Z,20.52
2023-08-02T10:07:55.092Z,20.45
2023-08-02T10:10:30.201Z,20.52
2023-08-02T10:13:03.192Z,20.58
2023-08-02T10:15:33.060Z,20.55
2023-08-02T10:18:04.049Z,20.54
2023-08-02T10:20:33.831Z,20.62
2023-08-02T10:23:07.430Z,20.74
2023-08-02T10:25:37.756Z,20.69
2023-08-02T10:28:07.846Z,20.78
2023-08-02T10:30:37.931Z,20.78
2023-08-02T10:33:16.094Z,20.82
2023-08-02T10:35:57.837Z,20.76
2023-08-02T10:38:50.635Z,20.65
2023-08-02T10:41:21.310Z,20.55
2023-08-02T10:44:16.906Z,20.44
2023-08-02T10:46:46.829Z,20.56
2023-08-02T10:49:44.512Z,20.63
2023-08-02T10:52:30.277Z,20.54
2023-08-02T10:55:14.340Z,20.52
2023-08-02T10:57:45.189Z,20.39
2023-08-02T11:00:19.606Z,20.38
2023-08-02T11:02:51.667Z,20.33
2023-08-02T11:05:39.942Z,20.39
2023-08-02T11:08:11.004Z,20.43
2023-08-02T11:10:54.362Z,20.29
2023-08-02T11:13:25.159Z,20.20
2023-08-02T11:16:05.866Z,20.22
2023-08-02T11:18:36.079Z,20.33
2023-08-02T11:21:12.973Z,20.13
2023-08-02T11:26:19.242Z,20.05
2023-08-02T11:28:51.202Z,20.24
2023-08-02T11:31:20.740Z,20.08
2023-08-02T11:33:50.127Z,19.83
2023-08-02T11:36:19.683Z,19.70
2023-08-02T11:38:49.237Z,19.71
2023-08-02T11:41:23.397Z,19.69
2023-08-02T11:43:52.929Z,19.64
2023-08-02T11:46:27.710Z,19.72
2023-08-02T11:49:01.057Z,19.58
2023-08-02T11:51:30.445Z,19.57
2023-08-02T11:54:01.265Z,19.59
2023-08-02T11:56:33.581Z,19.66
2023-08-02T11:59:03.705Z,19.52
2023-08-02T12:01:33.184Z,19.58
2023-08-02T12:04:07.188Z,19.49
2023-08-02T12:06:49.166Z,19.57
2023-08-02T12:09:19.207Z,19.61
2023-08-02T12:11:55.680Z,19.68
2023-08-02T12:14:32.876Z,19.60
2023-08-02T12:17:03.032Z,19.47
2023-08-02T12:19:44.123Z,19.51
2023-08-02T12:22:15.134Z,19.40
2023-08-02T12:24:44.983Z,19.51
2023-08-02T12:27:18.474Z,19.48
2023-08-02T12:29:48.847Z,19.44
2023-08-02T12:32:28.561Z,19.53
2023-08-02T12:35:11.100Z,19.49
2023-08-02T12:37:41.948Z,19.63
2023-08-02T12:40:12.586Z,19.65
2023-08-02T12:42:57.100Z,19.51
2023-08-02T12:45:33.414Z,19.55
2023-08-02T12:48:02.781Z,19.51
2023-08-02T12:50:32.432Z,19.65
2023-08-02T12:53:01.798Z,19.57
2023-08-02T12:55:31.133Z,19.41
2023-08-02T12:58:03.380Z,19.33
2023-08-02T13:00:32.853Z,19.40
2023-08-02T13:03:02.394Z,19.45
2023-08-02T13:05:31.941Z,19.59
2023-08-02T13:08:01.371Z,19.53
2023-08-02T13:10:30.869Z,19.34
2023-08-02T13:13:02.913Z,19.33
2023-08-02T13:15:32.245Z,19.35
2023-08-02T13:18:01.604Z,19.41
2023-08-02T13:20:31.568Z,19.25
2023-08-02T13:23:00.955Z,19.13
2023-08-02T13:25:31.467Z,19.27
2023-08-02T13:28:03.567Z,19.27
2023-08-02T13:30:32.920Z,19.24
2023-08-02T13:33:02.670Z,19.25
2023-08-02T13:35:32.092Z,19.47
2023-08-02T13:38:01.510Z,19.49
2023-08-02T13:40:30.845Z,19.42
2023-08-02T13:43:02.788Z,19.51
2023-08-02T13:45:32.264Z,19.42
2023-08-02T13:48:03.739Z,19.32
2023-08-02T13:50:33.538Z,19.39
2023-08-02T13:53:02.994Z,19.26
2023-08-02T13:55:32.357Z,19.23
2023-08-02T13:58:05.027Z,19.30
2023-08-02T14:00:34.483Z,19.23
2023-08-02T14:03:03.952Z,19.16
2023-08-02T14:05:33.362Z,18.96
2023-08-02T14:08:02.765Z,19.05
2023-08-02T14:10:32.140Z,19.08
2023-08-02T14:13:04.086Z,18.86
2023-08-02T14:15:33.514Z,18.79
2023-08-02T14:18:03.636Z,18.76
2023-08-02T14:20:33.010Z,18.73
2023-08-02T14:23:02.354Z,18.79
2023-08-02T14:25:31.734Z,18.79
2023-08-02T14:28:01.585Z,18.80
2023-08-02T14:30:33.536Z,18.82
2023-08-02T14:33:02.884Z,18.75
2023-08-02T14:35:32.273Z,18.75
2023-08-02T14:38:03.337Z,18.73
2023-08-02T14:40:32.704Z,18.72
2023-08-02T14:43:02.039Z,18.74
2023-08-02T14:45:34.021Z,18.72
2023-08-02T14:48:03.462Z,18.67
2023-08-02T14:50:32.990Z,18.76
2023-08-02T14:53:02.395Z,18.66
2023-08-02T14:55:31.756Z,18.60
2023-08-02T14:58:01.102Z,18.70
2023-08-02T15:00:30.495Z,18.69
2023-08-02T15:03:02.482Z,18.79
2023-08-02T15:05:31.884Z,18.81
2023-08-02T15:08:01.223Z,18.85
2023-08-02T15:10:30.585Z,18.95
2023-08-02T15:12:59.966Z,18.86
2023-08-02T15:15:29.402Z,18.80
2023-08-02T15:17:58.777Z,18.75
2023-08-02T15:20:31.303Z,18.74
2023-08-02T15:23:00.693Z,18.90
2023-08-02T15:25:31.052Z,18.71
2023-08-02T15:28:00.583Z,18.95
2023-08-02T15:30:29.923Z,18.87
2023-08-02T15:32:59.399Z,18.87
2023-08-02T15:35:33.070Z,18.98
2023-08-02T15:38:02.449Z,18.94
2023-08-02T15:40:31.847Z,18.97
2023-08-02T15:43:03.357Z,19.01
2023-08-02T15:45:34.408Z,19.02
2023-08-02T15:48:03.982Z,19.03
2023-08-02T15:50:37.561Z,19.15
2023-08-02T15:53:07.221Z,18.92
2023-08-02T15:55:37.259Z,19.00
2023-08-02T15:58:06.623Z,18.77
2023-08-02T16:00:38.559Z,18.90
2023-08-02T16:03:08.359Z,18.90
2023-08-02T16:05:40.742Z,18.83
2023-08-02T16:08:10.111Z,18.85
2023-08-02T16:10:41.009Z,18.74
2023-08-02T16:13:10.429Z,18.85
2023-08-02T16:15:39.764Z,18.81
2023-08-02T16:18:09.895Z,18.90
2023-08-02T16:20:42.985Z,18.86
2023-08-02T16:23:12.347Z,18.88
2023-08-02T16:25:41.701Z,18.78
2023-08-02T16:28:11.851Z,18.75
2023-08-02T16:30:41.728Z,18.85
2023-08-02T16:33:11.328Z,18.76
2023-08-02T16:35:45.407Z,18.88
2023-08-02T16:38:15.634Z,18.79
2023-08-02T16:40:45.443Z,18.83
2023-08-02T16:43:15.554Z,18.87
2023-08-02T16:45:45.212Z,18.74
2023-08-02T16:48:14.591Z,18.65
2023-08-02T16:50:48.381Z,18.60
2023-08-02T16:53:17.798Z,18.69
2023-08-02T16:55:47.316Z,18.64
2023-08-02T16:58:16.879Z,18.76
2023-08-02T17:00:46.255Z,18.95
2023-08-02T17:03:17.892Z,19.13
2023-08-02T17:05:50.610Z,19.36
2023-08-02T17:08:19.956Z,19.40
2023-08-02T17:10:49.308Z,19.32
2023-08-02T17:13:18.740Z,19.51
2023-08-02T17:15:48.154Z,19.50
2023-08-02T17:18:17.484Z,19.74
2023-08-02T17:20:46.925Z,19.73
2023-08-02T17:23:18.884Z,19.75
2023-08-02T17:25:48.375Z,19.59
2023-08-02T17:28:17.753Z,19.60
2023-08-02T17:30:47.115Z,19.40
2023-08-02T17:33:16.558Z,19.47
2023-08-02T17:35:45.995Z,19.47
2023-08-02T17:38:15.401Z,19.50
2023-08-02T17:40:48.352Z,19.47
2023-08-02T17:43:17.999Z,19.37
2023-08-02T17:45:47.524Z,19.42
2023-08-02T17:48:18.684Z,19.48
2023-08-02T17:50:58.822Z,19.37
2023-08-02T17:53:30.455Z,19.33
2023-08-02T17:56:04.452Z,19.36
2023-08-02T17:58:35.473Z,19.48
2023-08-02T18:01:12.221Z,19.44
2023-08-02T18:03:43.013Z,19.45
2023-08-02T18:06:12.857Z,19.49
2023-08-02T18:08:43.983Z,19.76
2023-08-02T18:11:16.385Z,19.86
2023-08-02T18:13:45.984Z,19.97
2023-08-02T18:16:15.375Z,19.96
2023-08-02T18:18:44.959Z,20.05
2023-08-02T18:21:14.925Z,20.05
2023-08-02T18:23:44.299Z,19.82
2023-08-02T18:26:19.158Z,19.82
2023-08-02T18:28:50.143Z,19.85
2023-08-02T18:31:19.600Z,19.79
2023-08-02T18:33:49.111Z,19.69
2023-08-02T18:36:20.732Z,19.66
2023-08-02T18:38:50.106Z,19.40
2023-08-02T18:41:25.137Z,19.47
2023-08-02T18:43:55.066Z,19.57
2023-08-02T18:46:24.914Z,19.45
2023-08-02T18:48:54.476Z,19.44
2023-08-02T18:51:24.377Z,19.40
2023-08-02T18:53:54.033Z,19.37
2023-08-02T18:56:26.480Z,19.21
2023-08-02T18:58:56.446Z,19.40
2023-08-02T19:01:25.881Z,19.43
2023-08-02T19:03:57.072Z,19.55
2023-08-02T19:06:26.570Z,19.52
2023-08-02T19:08:55.982Z,19.63
2023-08-02T19:11:31.842Z,19.66
2023-08-02T19:14:01.217Z,19.77
2023-08-02T19:16:32.800Z,19.73
2023-08-02T19:19:02.868Z,19.84
2023-08-02T19:21:33.035Z,19.85
2023-08-02T19:24:02.436Z,19.95
2023-08-02T19:26:35.923Z,19.95
2023-08-02T19:29:05.292Z,20.05
2023-08-02T19:31:34.653Z,19.85
2023-08-02T19:34:05.156Z,19.82
2023-08-02T19:36:34.624Z,19.97
2023-08-02T19:39:03.955Z,19.90
2023-08-02T19:41:37.892Z,19.92
2023-08-02T19:44:08.875Z,19.77
2023-08-02T19:46:38.352Z,19.73
2023-08-02T19:49:07.752Z,19.75
2023-08-02T19:51:37.453Z,19.76
2023-08-02T19:54:10.066Z,19.81
2023-08-02T19:56:43.903Z,19.85
2023-08-02T19:59:16.166Z,19.98
2023-08-02T20:01:45.533Z,20.02
2023-08-02T20:04:16.664Z,20.04
2023-08-02T20:06:47.841Z,20.11
2023-08-02T20:09:17.451Z,20.02
2023-08-02T20:11:49.582Z,19.92
2023-08-02T20:14:23.511Z,19.80
2023-08-02T20:16:53.001Z,19.87
2023-08-02T20:19:26.292Z,19.78
2023-08-02T20:21:56.207Z,19.81
2023-08-02T20:24:25.699Z,19.71
2023-08-02T20:26:57.636Z,19.67
2023-08-02T20:29:28.279Z,19.60
2023-08-02T20:31:57.648Z,19.61
2023-08-02T20:34:27.116Z,19.46
2023-08-02T20:36:56.761Z,19.41
2023-08-02T20:39:28.420Z,19.44
2023-08-02T20:42:00.427Z,19.63
2023-08-02T20:44:29.804Z,19.73
2023-08-02T20:46:59.195Z,19.73
2023-08-02T20:49:28.606Z,19.65
2023-08-02T20:51:57.973Z,19.60
2023-08-02T20:54:29.034Z,19.66
2023-08-02T20:57:01.057Z,19.76
2023-08-02T20:59:31.646Z,19.76
2023-08-02T21:02:01.146Z,19.64
2023-08-02T21:04:30.481Z,19.65
2023-08-02T21:07:11.273Z,19.56
2023-08-02T21:09:41.781Z,19.46
2023-08-02T21:12:14.414Z,19.35
2023-08-02T21:14:43.811Z,19.59
2023-08-02T21:17:20.373Z,19.60
2023-08-02T21:19:50.537Z,19.56
2023-08-02T21:22:20.390Z,19.63
2023-08-02T21:24:49.837Z,19.25
2023-08-02T21:27:21.837Z,19.57
2023-08-02T21:29:51.217Z,19.43
2023-08-02T21:32:23.684Z,19.49
2023-08-02T21:35:04.289Z,19.32
2023-08-02T21:37:35.944Z,19.41
2023-08-02T21:40:05.577Z,19.29
2023-08-02T21:42:37.538Z,19.25
2023-08-02T21:45:08.285Z,19.46
2023-08-02T21:47:39.772Z,19.52
2023-08-02T21:50:12.271Z,19.55
2023-08-02T21:52:41.692Z,19.44
2023-08-02T21:55:13.889Z,19.40
2023-08-02T21:57:46.012Z,19.44
2023-08-02T22:00:17.272Z,19.30
2023-08-02T22:02:46.730Z,19.48
2023-08-02T22:05:16.664Z,19.31
2023-08-02T22:07:46.522Z,19.54
2023-08-02T22:10:21.306Z,19.20
2023-08-02T22:12:53.250Z,19.40
2023-08-02T22:15:26.849Z,19.44
2023-08-02T22:17:58.073Z,19.16
2023-08-02T22:20:27.569Z,19.37
2023-08-02T22:22:56.916Z,19.12
2023-08-02T22:25:26.567Z,19.43
2023-08-02T22:27:58.524Z,19.31
2023-08-02T22:30:28.354Z,19.29
2023-08-02T22:32:58.271Z,19.30
2023-08-02T22:35:27.729Z,19.34
2023-08-02T22:37:57.088Z,19.15
2023-08-02T22:40:26.435Z,19.24
2023-08-02T22:42:59.243Z,19.12
2023-08-02T22:45:28.688Z,19.13
2023-08-02T22:48:22.947Z,19.23
2023-08-02T22:53:21.596Z,19.22
2023-08-02T22:55:51.138Z,19.01
2023-08-02T22:58:23.196Z,19.15
2023-08-02T23:00:52.708Z,19.07
2023-08-02T23:03:37.958Z,19.12
2023-08-02T23:06:08.016Z,19.04
2023-08-02T23:08:38.858Z,19.03
2023-08-02T23:11:09.502Z,19.11
2023-08-02T23:13:45.721Z,19.24
2023-08-02T23:16:21.425Z,19.21
2023-08-02T23:18:51.853Z,19.14
2023-08-02T23:21:21.691Z,18.94
2023-08-02T23:23:52.605Z,18.79
2023-08-02T23:26:28.881Z,18.60
2023-08-02T23:29:02.575Z,18.61
2023-08-02T23:31:32.672Z,18.90
2023-08-02T23:34:03.164Z,18.77
2023-08-02T23:36:32.602Z,18.82
2023-08-02T23:39:02.028Z,19.11
2023-08-02T23:41:31.477Z,19.03
2023-08-02T23:44:03.496Z,18.89
2023-08-02T23:46:34.965Z,18.64
2023-08-02T23:49:04.420Z,18.86
2023-08-02T23:51:33.851Z,18.88
2023-08-02T23:54:06.341Z,19.01
2023-08-02T23:56:35.769Z,18.96
2023-08-02T23:59:07.828Z,19.06
